createdAt,value
2023-12-30T00:00:17.976Z,100567.00
2023-12-30T00:02:46.978Z,100565.44
2023-12-30T00:05:13.932Z,100565.53
2023-12-30T00:07:40.581Z,100538.19
2023-12-30T00:10:07.986Z,100561.69
2023-12-30T00:12:35.138Z,100548.50
2023-12-30T00:15:02.595Z,100563.59
2023-12-30T00:17:29.835Z,100539.50
2023-12-30T00:19:57.823Z,100501.00
2023-12-30T00:22:24.660Z,100563.84
2023-12-30T00:24:51.521Z,100504.25
2023-12-30T00:27:18.237Z,100531.50
2023-12-30T00:29:44.907Z,100532.31
2023-12-30T00:32:11.736Z,100543.66
2023-12-30T00:34:38.447Z,100555.66
2023-12-30T00:37:05.190Z,100559.47
2023-12-30T00:39:31.949Z,100559.47
2023-12-30T00:41:58.623Z,100554.91
2023-12-30T00:44:25.320Z,100576.94
2023-12-30T00:46:52.203Z,100587.25
2023-12-30T00:49:19.005Z,100590.63
2023-12-30T00:51:45.875Z,100572.78
2023-12-30T00:54:12.542Z,100522.41
2023-12-30T00:56:39.215Z,100587.75
2023-12-30T00:59:05.905Z,100593.75
2023-12-30T01:01:32.678Z,100599.00
2023-12-30T01:04:00.441Z,100593.97
2023-12-30T01:06:27.141Z,100585.78
2023-12-30T01:08:54.024Z,100525.13
2023-12-30T01:11:20.841Z,100583.28
2023-12-30T01:13:47.599Z,100583.41
2023-12-30T01:16:15.399Z,100587.94
2023-12-30T01:18:42.369Z,100591.31
2023-12-30T01:21:09.278Z,100578.59
2023-12-30T01:23:35.965Z,100607.97
2023-12-30T01:26:02.805Z,100595.06
2023-12-30T01:28:29.482Z,100595.06
2023-12-30T01:30:56.320Z,100599.19
2023-12-30T01:33:23.890Z,100614.31
2023-12-30T01:35:50.658Z,100596.56
2023-12-30T01:38:17.909Z,100600.16
2023-12-30T01:40:44.763Z,100597.50
2023-12-30T01:43:28.209Z,100613.78
2023-12-30T01:45:58.227Z,100618.47
2023-12-30T01:48:25.836Z,100608.38
2023-12-30T01:50:53.504Z,100623.63
2023-12-30T01:53:21.010Z,100604.19
2023-12-30T01:55:51.621Z,100620.25
2023-12-30T01:58:19.700Z,100632.22
2023-12-30T02:00:49.959Z,100613.03
2023-12-30T02:03:17.224Z,100639.19
2023-12-30T02:05:44.069Z,100606.31
2023-12-30T02:08:10.907Z,100623.63
2023-12-30T02:10:38.022Z,100652.72
2023-12-30T02:13:05.161Z,100623.00
2023-12-30T02:15:32.081Z,100648.09
2023-12-30T02:17:58.927Z,100629.38
2023-12-30T02:20:26.184Z,100636.72
2023-12-30T02:22:52.945Z,100647.19
2023-12-30T02:25:19.725Z,100654.41
2023-12-30T02:27:46.911Z,100636.16
2023-12-30T02:30:14.642Z,100601.38
2023-12-30T02:32:42.043Z,100628.00
2023-12-30T02:35:09.305Z,100621.50
2023-12-30T02:37:36.035Z,100599.69
2023-12-30T02:40:03.016Z,100657.97
2023-12-30T02:42:29.712Z,100646.69
2023-12-30T02:44:56.459Z,100672.09
2023-12-30T02:47:23.163Z,100615.72
2023-12-30T02:49:49.813Z,100678.09
2023-12-30T02:52:16.708Z,100669.72
2023-12-30T02:54:43.477Z,100689.88
2023-12-30T02:57:10.229Z,100693.94
2023-12-30T02:59:36.985Z,100674.28
2023-12-30T03:02:03.796Z,100669.75
2023-12-30T03:04:30.710Z,100692.09
2023-12-30T03:06:57.556Z,100660.03
2023-12-30T03:09:24.681Z,100695.22
2023-12-30T03:11:51.302Z,100688.25
2023-12-30T03:14:18.021Z,100696.69
2023-12-30T03:16:44.606Z,100665.22
2023-12-30T03:19:12.669Z,100644.81
2023-12-30T03:21:39.506Z,100681.56
2023-12-30T03:24:06.452Z,100694.75
2023-12-30T03:26:33.064Z,100701.97
2023-12-30T03:28:59.664Z,100661.50
2023-12-30T03:31:28.790Z,100712.03
2023-12-30T03:33:56.641Z,100717.53
2023-12-30T03:36:23.624Z,100710.66
2023-12-30T03:38:53.482Z,100712.72
2023-12-30T03:41:20.311Z,100708.97
2023-12-30T03:43:47.308Z,100711.94
2023-12-30T03:46:14.196Z,100698.97
2023-12-30T03:48:41.031Z,100718.38
2023-12-30T03:51:08.165Z,100684.16
2023-12-30T03:53:34.844Z,100726.34
2023-12-30T03:56:01.769Z,100715.88
2023-12-30T03:58:28.964Z,100717.44
2023-12-30T04:00:55.947Z,100716.09
2023-12-30T04:03:22.785Z,100701.19
2023-12-30T04:05:49.746Z,100739.69
2023-12-30T04:08:16.498Z,100706.88
2023-12-30T04:10:43.137Z,100732.94
2023-12-30T04:13:10.855Z,100734.88
2023-12-30T04:15:38.633Z,100740.97
2023-12-30T04:18:06.156Z,100742.22
2023-12-30T04:20:33.299Z,100736.81
2023-12-30T04:23:00.996Z,100743.22
2023-12-30T04:25:28.016Z,100746.69
2023-12-30T04:27:54.749Z,100730.50
2023-12-30T04:30:21.499Z,100755.28
2023-12-30T04:32:48.354Z,100723.47
2023-12-30T04:35:15.197Z,100724.84
2023-12-30T04:37:41.901Z,100738.72
2023-12-30T04:40:09.124Z,100749.44
2023-12-30T04:42:36.719Z,100720.03
2023-12-30T04:45:04.201Z,100769.94
2023-12-30T04:47:31.139Z,100764.94
2023-12-30T04:49:58.018Z,100771.75
2023-12-30T04:52:24.746Z,100740.41
2023-12-30T04:54:51.549Z,100757.69
2023-12-30T04:57:18.265Z,100782.38
2023-12-30T04:59:44.886Z,100768.72
2023-12-30T05:02:11.489Z,100756.22
2023-12-30T05:04:38.308Z,100741.91
2023-12-30T05:07:05.287Z,100764.38
2023-12-30T05:09:35.496Z,100756.19
2023-12-30T05:12:02.290Z,100756.91
2023-12-30T05:14:28.948Z,100783.31
2023-12-30T05:16:55.578Z,100744.84
2023-12-30T05:19:22.363Z,100771.88
2023-12-30T05:21:52.784Z,100796.91
2023-12-30T05:24:19.814Z,100772.53
2023-12-30T05:26:47.175Z,100787.03
2023-12-30T05:29:13.827Z,100787.50
2023-12-30T05:31:40.500Z,100775.72
2023-12-30T05:34:08.295Z,100784.47
2023-12-30T05:36:38.339Z,100799.91
2023-12-30T05:39:05.059Z,100786.16
2023-12-30T05:41:31.789Z,100779.28
2023-12-30T05:43:58.636Z,100799.91
2023-12-30T05:46:25.918Z,100796.03
2023-12-30T05:48:52.728Z,100807.31
2023-12-30T05:51:21.653Z,100806.88
2023-12-30T05:53:49.076Z,100790.03
2023-12-30T05:56:23.435Z,100821.19
2023-12-30T05:58:51.042Z,100799.91
2023-12-30T06:01:17.737Z,100818.44
2023-12-30T06:03:44.584Z,100827.78
2023-12-30T06:06:11.438Z,100823.47
2023-12-30T06:08:38.225Z,100815.13
2023-12-30T06:11:05.037Z,100838.84
2023-12-30T06:13:33.228Z,100811.94
2023-12-30T06:16:00.098Z,100809.00
2023-12-30T06:18:31.928Z,100805.84
2023-12-30T06:20:59.940Z,100826.25
2023-12-30T06:23:30.119Z,100838.97
2023-12-30T06:25:56.852Z,100839.94
2023-12-30T06:28:27.519Z,100820.69
2023-12-30T06:30:55.061Z,100818.69
2023-12-30T06:33:23.443Z,100844.72
2023-12-30T06:35:50.890Z,100830.41
2023-12-30T06:38:18.197Z,100850.09
2023-12-30T06:40:46.875Z,100827.47
2023-12-30T06:43:14.369Z,100844.63
2023-12-30T06:45:41.073Z,100781.50
2023-12-30T06:48:08.077Z,100839.59
2023-12-30T06:50:34.778Z,100842.13
2023-12-30T06:53:02.073Z,100812.75
2023-12-30T06:55:35.228Z,100832.84
2023-12-30T06:58:09.432Z,100841.28
2023-12-30T07:00:37.165Z,100856.63
2023-12-30T07:03:04.727Z,100837.38
2023-12-30T07:05:37.436Z,100870.34
2023-12-30T07:08:04.767Z,100864.84
2023-12-30T07:10:31.698Z,100870.97
2023-12-30T07:12:58.480Z,100879.59
2023-12-30T07:15:25.148Z,100878.13
2023-12-30T07:17:51.929Z,100874.97
2023-12-30T07:20:18.651Z,100865.38
2023-12-30T07:22:45.565Z,100849.19
2023-12-30T07:25:12.369Z,100884.22
2023-12-30T07:27:39.151Z,100911.72
2023-12-30T07:30:06.548Z,100911.06
2023-12-30T07:32:33.332Z,100885.50
2023-12-30T07:35:01.007Z,100898.97
2023-12-30T07:37:28.776Z,100872.88
2023-12-30T07:39:55.881Z,100918.03
2023-12-30T07:42:23.965Z,100908.84
2023-12-30T07:44:52.362Z,100925.16
2023-12-30T07:47:19.724Z,100936.25
2023-12-30T07:49:49.155Z,100938.56
2023-12-30T07:52:15.853Z,100940.88
2023-12-30T07:54:42.578Z,100895.13
2023-12-30T07:57:09.358Z,100944.84
2023-12-30T07:59:36.001Z,100946.56
2023-12-30T08:02:03.929Z,100960.78
2023-12-30T08:04:30.743Z,100944.66
2023-12-30T08:06:57.490Z,100964.16
2023-12-30T08:09:24.305Z,100964.03
2023-12-30T08:11:59.209Z,100982.91
2023-12-30T08:14:29.684Z,100965.09
2023-12-30T08:16:56.638Z,100957.06
2023-12-30T08:19:23.401Z,100993.53
2023-12-30T08:21:50.440Z,100962.56
2023-12-30T08:24:20.354Z,101016.06
2023-12-30T08:26:47.569Z,101007.22
2023-12-30T08:29:15.626Z,101019.56
2023-12-30T08:31:51.365Z,101013.97
2023-12-30T08:34:18.562Z,100969.03
2023-12-30T08:36:46.036Z,101033.03
2023-12-30T08:39:13.195Z,101021.34
2023-12-30T08:41:41.716Z,101021.66
2023-12-30T08:44:08.600Z,101044.84
2023-12-30T08:46:36.352Z,101006.88
2023-12-30T08:49:06.728Z,101040.28
2023-12-30T08:51:35.823Z,101039.44
2023-12-30T08:54:02.860Z,101038.59
2023-12-30T08:56:35.645Z,101033.56
2023-12-30T08:59:02.779Z,101000.66
2023-12-30T09:01:29.918Z,101028.72
2023-12-30T09:03:57.382Z,101030.28
2023-12-30T09:06:24.243Z,101033.84
2023-12-30T09:08:51.050Z,101052.09
2023-12-30T09:11:21.849Z,101040.00
2023-12-30T09:13:50.294Z,101019.66
2023-12-30T09:16:17.151Z,101052.13
2023-12-30T09:18:44.459Z,101033.28
2023-12-30T09:21:11.339Z,101064.78
2023-12-30T09:23:38.752Z,101048.56
2023-12-30T09:26:05.839Z,101042.22
2023-12-30T09:28:33.444Z,101066.06
2023-12-30T09:31:00.900Z,101054.03
2023-12-30T09:33:27.869Z,101023.88
2023-12-30T09:35:56.020Z,101054.88
2023-12-30T09:38:26.553Z,101066.47
2023-12-30T09:40:54.894Z,101061.44
2023-12-30T09:43:26.979Z,101067.97
2023-12-30T09:45:55.708Z,101066.47
2023-12-30T09:48:28.628Z,101069.22
2023-12-30T09:50:57.001Z,101066.47
2023-12-30T09:53:26.116Z,101071.94
2023-12-30T09:55:53.770Z,101081.88
2023-12-30T09:58:21.785Z,101056.38
2023-12-30T10:00:48.515Z,101044.97
2023-12-30T10:03:16.801Z,101060.78
2023-12-30T10:05:43.784Z,101076.16
2023-12-30T10:08:11.144Z,101087.97
2023-12-30T10:10:43.592Z,101079.53
2023-12-30T10:13:13.251Z,101084.38
2023-12-30T10:15:41.718Z,101094.28
2023-12-30T10:18:08.932Z,101066.78
2023-12-30T10:20:42.359Z,101103.78
2023-12-30T10:23:09.215Z,101088.50
2023-12-30T10:25:36.332Z,101095.13
2023-12-30T10:28:03.940Z,101047.28
2023-12-30T10:30:32.051Z,101065.94
2023-12-30T10:33:16.098Z,101085.31
2023-12-30T10:35:44.044Z,101106.97
2023-12-30T10:38:11.998Z,101100.00
2023-12-30T10:40:42.258Z,101092.50
2023-12-30T10:43:10.071Z,101104.63
2023-12-30T10:45:37.170Z,101099.44
2023-12-30T10:48:07.787Z,101102.00
2023-12-30T10:50:38.560Z,101100.63
2023-12-30T10:53:16.560Z,101085.66
2023-12-30T10:55:51.488Z,101079.56
2023-12-30T10:58:21.060Z,101089.78
2023-12-30T11:00:58.378Z,101123.59
2023-12-30T11:03:26.859Z,101085.00
2023-12-30T11:06:24.260Z,101121.16
2023-12-30T11:08:59.002Z,101114.50
2023-12-30T11:11:26.295Z,101083.28
2023-12-30T11:13:58.219Z,101110.88
2023-12-30T11:16:25.368Z,101073.38
2023-12-30T11:18:59.291Z,101105.50
2023-12-30T11:21:47.855Z,101063.69
2023-12-30T11:24:16.377Z,101080.50
2023-12-30T11:26:46.730Z,101094.75
2023-12-30T11:29:17.362Z,101094.75
2023-12-30T11:31:46.352Z,101106.75
2023-12-30T11:34:14.683Z,101098.34
2023-12-30T11:36:42.704Z,101066.41
2023-12-30T11:39:10.247Z,101082.19
2023-12-30T11:41:37.066Z,101087.03
2023-12-30T11:44:07.106Z,101087.78
2023-12-30T11:46:34.053Z,101072.59
2023-12-30T11:49:00.902Z,101079.13
2023-12-30T11:51:33.842Z,101099.91
2023-12-30T11:54:06.831Z,101096.72
2023-12-30T11:56:34.191Z,101075.88
2023-12-30T11:59:01.884Z,101085.63
2023-12-30T12:01:28.781Z,101072.50
2023-12-30T12:03:56.227Z,101077.44
2023-12-30T12:06:23.012Z,101077.97
2023-12-30T12:08:49.783Z,101053.53
2023-12-30T12:11:16.584Z,101083.44
2023-12-30T12:13:43.552Z,101074.59
2023-12-30T12:16:10.297Z,101075.81
2023-12-30T12:18:37.476Z,101007.00
2023-12-30T12:21:12.878Z,101072.63
2023-12-30T12:23:41.882Z,101054.06
2023-12-30T12:26:08.877Z,101050.88
2023-12-30T12:28:35.791Z,101038.44
2023-12-30T12:31:03.652Z,101070.94
2023-12-30T12:33:31.303Z,101039.19
2023-12-30T12:35:58.589Z,101066.72
2023-12-30T12:38:25.429Z,101046.56
2023-12-30T12:40:52.405Z,101036.84
2023-12-30T12:43:19.720Z,101036.00
2023-12-30T12:45:46.669Z,101039.06
2023-12-30T12:48:14.537Z,101033.03
2023-12-30T12:50:41.264Z,101053.03
2023-12-30T12:53:07.916Z,101038.88
2023-12-30T12:55:35.306Z,101031.91
2023-12-30T12:58:02.206Z,101035.50
2023-12-30T13:00:28.897Z,100977.78
2023-12-30T13:02:55.716Z,101042.03
2023-12-30T13:05:23.622Z,101025.66
2023-12-30T13:07:50.781Z,101026.38
2023-12-30T13:10:36.125Z,101032.19
2023-12-30T13:13:03.613Z,101044.94
2023-12-30T13:15:30.741Z,101006.53
2023-12-30T13:18:00.672Z,101046.16
2023-12-30T13:20:28.626Z,101032.69
2023-12-30T13:22:58.992Z,101011.72
2023-12-30T13:25:31.895Z,101022.13
2023-12-30T13:27:59.535Z,101020.31
2023-12-30T13:30:27.044Z,101028.41
2023-12-30T13:33:02.185Z,101019.13
2023-12-30T13:35:35.268Z,100961.63
2023-12-30T13:38:07.546Z,101002.88
2023-12-30T13:40:34.883Z,100998.56
2023-12-30T13:43:08.955Z,101018.78
2023-12-30T13:45:38.826Z,100990.13
2023-12-30T13:48:07.000Z,101024.81
2023-12-30T13:50:52.737Z,101021.16
2023-12-30T13:53:22.474Z,100999.28
2023-12-30T13:55:49.406Z,100995.59
2023-12-30T13:58:16.685Z,101000.50
2023-12-30T14:00:44.218Z,100992.84
2023-12-30T14:03:11.157Z,101001.03
2023-12-30T14:05:42.070Z,100985.66
2023-12-30T14:08:27.324Z,100990.56
2023-12-30T14:10:55.379Z,100997.53
2023-12-30T14:13:24.250Z,100973.88
2023-12-30T14:15:52.577Z,100990.69
2023-12-30T14:18:20.184Z,101000.28
2023-12-30T14:20:47.926Z,100980.00
2023-12-30T14:23:14.973Z,100983.34
2023-12-30T14:25:42.426Z,100995.00
2023-12-30T14:28:10.833Z,100990.69
2023-12-30T14:30:38.334Z,100987.34
2023-12-30T14:33:06.683Z,100974.94
2023-12-30T14:35:33.877Z,100987.34
2023-12-30T14:38:02.651Z,100995.16
2023-12-30T14:40:29.947Z,100974.59
2023-12-30T14:42:56.935Z,100960.28
2023-12-30T14:45:24.064Z,100980.38
2023-12-30T14:47:51.117Z,100960.41
2023-12-30T14:50:17.975Z,100965.47
2023-12-30T14:52:44.807Z,100977.25
2023-12-30T14:55:12.475Z,100960.41
2023-12-30T14:57:40.700Z,100912.53
2023-12-30T15:00:15.488Z,100958.94
2023-12-30T15:02:43.864Z,100974.34
2023-12-30T15:05:15.211Z,100969.66
2023-12-30T15:07:43.758Z,100979.16
2023-12-30T15:10:12.095Z,100972.19
2023-12-30T15:12:39.550Z,100961.84
2023-12-30T15:15:08.076Z,100949.22
2023-12-30T15:17:34.935Z,100944.31
2023-12-30T15:20:01.933Z,100955.13
2023-12-30T15:22:30.748Z,100960.03
2023-12-30T15:24:58.188Z,100952.47
2023-12-30T15:27:25.049Z,100962.44
2023-12-30T15:29:51.911Z,100975.03
2023-12-30T15:32:18.947Z,100927.06
2023-12-30T15:34:45.823Z,100956.44
2023-12-30T15:37:15.578Z,100952.84
2023-12-30T15:39:42.247Z,100934.06
2023-12-30T15:42:09.228Z,100932.03
2023-12-30T15:44:38.855Z,100953.91
2023-12-30T15:47:11.035Z,100977.94
2023-12-30T15:49:39.007Z,100953.22
2023-12-30T15:52:11.068Z,100972.56
2023-12-30T15:54:40.593Z,100964.50
2023-12-30T15:57:07.615Z,100971.47
2023-12-30T15:59:34.438Z,100970.75
2023-12-30T16:02:01.635Z,100934.47
2023-12-30T16:04:28.961Z,100953.69
2023-12-30T16:06:55.808Z,100948.88
2023-12-30T16:09:22.863Z,100954.78
2023-12-30T16:11:50.212Z,100974.38
2023-12-30T16:14:17.505Z,100937.72
2023-12-30T16:16:47.782Z,100946.00
2023-12-30T16:19:16.540Z,100951.28
2023-12-30T16:21:43.329Z,100948.19
2023-12-30T16:24:10.190Z,100949.13
2023-12-30T16:26:36.981Z,100920.56
2023-12-30T16:29:04.474Z,100877.03
2023-12-30T16:31:31.692Z,100920.78
2023-12-30T16:33:58.816Z,100952.75
2023-12-30T16:36:25.976Z,100946.41
2023-12-30T16:38:53.138Z,100937.00
2023-12-30T16:41:19.893Z,100952.50
2023-12-30T16:43:46.732Z,100914.31
2023-12-30T16:46:13.688Z,100918.88
2023-12-30T16:48:40.874Z,100929.81
2023-12-30T16:51:07.771Z,100925.59
2023-12-30T16:53:34.433Z,100932.81
2023-12-30T16:56:01.426Z,100904.00
2023-12-30T16:58:32.032Z,100919.25
2023-12-30T17:01:02.832Z,100910.00
2023-12-30T17:03:30.140Z,100917.44
2023-12-30T17:05:56.921Z,100920.78
2023-12-30T17:08:23.703Z,100900.25
2023-12-30T17:10:50.437Z,100918.88
2023-12-30T17:13:17.162Z,100902.06
2023-12-30T17:15:44.279Z,100900.38
2023-12-30T17:18:11.041Z,100876.59
2023-12-30T17:20:37.689Z,100905.91
2023-12-30T17:23:06.787Z,100901.81
2023-12-30T17:25:33.537Z,100878.06
2023-12-30T17:28:01.110Z,100875.88
2023-12-30T17:30:28.798Z,100907.81
2023-12-30T17:32:55.879Z,100901.59
2023-12-30T17:35:24.674Z,100908.06
2023-12-30T17:37:51.588Z,100907.56
2023-12-30T17:40:19.407Z,100912.75
2023-12-30T17:42:47.044Z,100870.81
2023-12-30T17:45:14.228Z,100903.34
2023-12-30T17:47:41.027Z,100891.13
2023-12-30T17:50:11.109Z,100909.25
2023-12-30T17:52:38.341Z,100892.44
2023-12-30T17:55:05.986Z,100890.75
2023-12-30T17:57:32.665Z,100883.09
2023-12-30T17:59:59.638Z,100889.78
2023-12-30T18:02:26.382Z,100898.91
2023-12-30T18:04:53.383Z,100910.94
2023-12-30T18:07:20.178Z,100897.84
2023-12-30T18:09:48.269Z,100891.94
2023-12-30T18:12:15.182Z,100886.66
2023-12-30T18:14:42.012Z,100889.78
2023-12-30T18:17:09.079Z,100876.34
2023-12-30T18:19:35.895Z,100867.19
2023-12-30T18:22:02.962Z,100806.13
2023-12-30T18:24:30.108Z,100882.44
2023-12-30T18:26:57.050Z,100854.00
2023-12-30T18:29:24.216Z,100868.16
2023-12-30T18:31:51.971Z,100861.69
2023-12-30T18:34:19.330Z,100875.34
2023-12-30T18:36:47.162Z,100856.50
2023-12-30T18:39:14.216Z,100848.97
2023-12-30T18:41:41.046Z,100862.97
2023-12-30T18:44:07.914Z,100862.03
2023-12-30T18:46:37.684Z,100867.19
2023-12-30T18:49:04.716Z,100855.91
2023-12-30T18:51:31.474Z,100847.25
2023-12-30T18:53:58.216Z,100832.38
2023-12-30T18:56:24.873Z,100847.97
2023-12-30T18:58:51.729Z,100842.69
2023-12-30T19:01:18.576Z,100821.31
2023-12-30T19:03:45.454Z,100839.19
2023-12-30T19:06:12.225Z,100837.28
2023-12-30T19:08:39.805Z,100811.00
2023-12-30T19:11:07.067Z,100815.50
2023-12-30T19:13:35.368Z,100821.13
2023-12-30T19:16:03.738Z,100813.13
2023-12-30T19:18:30.604Z,100722.47
2023-12-30T19:20:58.220Z,100805.72
2023-12-30T19:23:25.087Z,100794.75
2023-12-30T19:25:51.738Z,100804.03
2023-12-30T19:28:18.532Z,100725.81
2023-12-30T19:30:45.271Z,100781.22
2023-12-30T19:33:13.728Z,100731.78
2023-12-30T19:35:42.674Z,100777.88
2023-12-30T19:38:09.758Z,100770.91
2023-12-30T19:40:36.636Z,100787.09
2023-12-30T19:43:05.166Z,100764.91
2023-12-30T19:45:32.114Z,100776.88
2023-12-30T19:48:00.123Z,100748.81
2023-12-30T19:50:29.189Z,100769.34
2023-12-30T19:52:56.373Z,100767.03
2023-12-30T19:55:23.230Z,100767.75
2023-12-30T19:57:49.933Z,100756.84
2023-12-30T20:00:17.188Z,100737.28
2023-12-30T20:02:44.704Z,100766.81
2023-12-30T20:05:15.683Z,100688.31
2023-12-30T20:07:42.766Z,100752.88
2023-12-30T20:10:12.853Z,100757.44
2023-12-30T20:12:40.034Z,100757.44
2023-12-30T20:15:08.410Z,100749.03
2023-12-30T20:17:36.883Z,100719.44
2023-12-30T20:20:07.134Z,100736.78
2023-12-30T20:22:34.342Z,100728.88
2023-12-30T20:25:01.094Z,100714.47
2023-12-30T20:27:28.817Z,100735.72
2023-12-30T20:29:55.650Z,100724.53
2023-12-30T20:32:23.202Z,100721.44
2023-12-30T20:34:51.047Z,100732.47
2023-12-30T20:37:20.588Z,100726.47
2023-12-30T20:39:47.333Z,100708.00
2023-12-30T20:42:14.812Z,100673.97
2023-12-30T20:44:41.464Z,100706.09
2023-12-30T20:47:11.275Z,100695.44
2023-12-30T20:49:39.474Z,100685.69
2023-12-30T20:52:06.634Z,100695.03
2023-12-30T20:54:33.895Z,100680.09
2023-12-30T20:57:00.916Z,100686.41
2023-12-30T20:59:27.666Z,100674.66
2023-12-30T21:01:54.384Z,100692.91
2023-12-30T21:04:21.217Z,100680.56
2023-12-30T21:06:47.911Z,100682.59
2023-12-30T21:09:15.734Z,100699.03
2023-12-30T21:11:43.206Z,100687.25
2023-12-30T21:14:10.041Z,100680.19
2023-12-30T21:16:37.095Z,100680.19
2023-12-30T21:19:04.383Z,100640.84
2023-12-30T21:21:31.308Z,100666.63
2023-12-30T21:23:58.141Z,100670.81
2023-12-30T21:26:25.865Z,100662.53
2023-12-30T21:28:52.636Z,100653.78
2023-12-30T21:31:19.460Z,100672.47
2023-12-30T21:33:46.252Z,100627.91
2023-12-30T21:36:15.889Z,100660.03
2023-12-30T21:38:44.398Z,100625.00
2023-12-30T21:41:12.935Z,100648.75
2023-12-30T21:43:42.445Z,100649.72
2023-12-30T21:46:09.190Z,100639.66
2023-12-30T21:48:35.945Z,100622.13
2023-12-30T21:51:07.510Z,100626.44
2023-12-30T21:53:34.228Z,100610.00
2023-12-30T21:56:00.848Z,100625.09
2023-12-30T21:58:27.496Z,100618.53
2023-12-30T22:00:54.344Z,100620.91
2023-12-30T22:03:21.151Z,100610.22
2023-12-30T22:05:47.938Z,100599.09
2023-12-30T22:08:15.062Z,100597.91
2023-12-30T22:10:41.795Z,100584.38
